Time;durP1;ratioP1;P1;durP2;ratioP2;P2;SDS_P1;SDS_P2;PMS_P1;PMS_P2;Temp;Humidity;BMP_temperature;BMP_pressure;BME280_temperature;BME280_humidity;BME280_pressure;Samples;Min_cycle;Max_cycle;Signal;HPM_P1;HPM_P2
2022/04/14 00:00:20;;;;;;;37.55;28.73;;;13.70;89.70;;;;;;5016407;28;20178;-87
2022/04/14 00:02:46;;;;;;;38.47;28.90;;;13.70;90.10;;;;;;5018000;28;20202;-87
2022/04/14 00:05:12;;;;;;;39.20;27.80;;;13.80;90.40;;;;;;5029974;28;20190;-84
2022/04/14 00:07:39;;;;;;;48.67;34.20;;;13.80;90.10;;;;;;5022694;28;20178;-85
2022/04/14 00:10:05;;;;;;;43.20;31.15;;;13.80;89.90;;;;;;5018212;28;20228;-88
2022/04/14 00:12:31;;;;;;;44.50;32.53;;;13.70;90.10;;;;;;5014858;28;20670;-86
2022/04/14 00:14:57;;;;;;;44.87;30.50;;;13.70;90.50;;;;;;5013811;28;20195;-86
2022/04/14 00:17:24;;;;;;;43.75;32.15;;;13.70;90.70;;;;;;5014982;28;20435;-86
2022/04/14 00:19:51;;;;;;;40.90;31.20;;;13.70;90.80;;;;;;5016275;28;20213;-85
2022/04/14 00:22:16;;;;;;;43.03;33.95;;;13.80;90.60;;;;;;5018026;28;20253;-87
2022/04/14 00:24:42;;;;;;;41.90;29.20;;;13.90;90.30;;;;;;5019363;28;20721;-88
2022/04/14 00:27:08;;;;;;;41.60;29.90;;;13.90;89.90;;;;;;5006708;28;20182;-85
2022/04/14 00:29:34;;;;;;;41.93;30.17;;;14.00;89.10;;;;;;5024566;28;20174;-87
2022/04/14 00:32:00;;;;;;;46.60;31.87;;;14.20;87.70;;;;;;5017270;28;20456;-86
2022/04/14 00:34:25;;;;;;;45.30;30.80;;;14.20;86.80;;;;;;5018853;28;20564;-87
2022/04/14 00:36:51;;;;;;;38.53;29.60;;;14.20;86.40;;;;;;5019165;28;20312;-88
2022/04/14 00:39:17;;;;;;;35.90;27.30;;;14.20;86.30;;;;;;5029881;28;20421;-88
2022/04/14 00:41:43;;;;;;;38.37;27.90;;;14.10;86.50;;;;;;5019671;28;20421;-87
2022/04/14 00:44:09;;;;;;;42.50;28.80;;;14.00;87.20;;;;;;5018116;28;20479;-87
2022/04/14 00:46:34;;;;;;;40.80;29.03;;;13.90;88.30;;;;;;5018313;28;20183;-86
2022/04/14 00:49:00;;;;;;;45.90;30.87;;;14.00;87.70;;;;;;5018904;28;20201;-86
2022/04/14 00:51:26;;;;;;;44.97;31.07;;;14.00;87.10;;;;;;5018886;28;20596;-85
2022/04/14 00:53:53;;;;;;;43.55;29.33;;;14.10;86.50;;;;;;5022552;28;20417;-85
2022/04/14 00:56:18;;;;;;;45.05;28.42;;;14.10;86.70;;;;;;5029352;28;20182;-85
2022/04/14 00:58:44;;;;;;;44.63;29.13;;;14.00;86.50;;;;;;5031779;28;20205;-88
2022/04/14 01:01:12;;;;;;;40.57;27.03;;;13.90;87.00;;;;;;5032486;28;20186;-87
2022/04/14 01:03:40;;;;;;;37.05;24.58;;;13.90;87.20;;;;;;5006964;28;20436;-86
2022/04/14 01:06:08;;;;;;;31.95;25.05;;;13.90;87.10;;;;;;5019525;28;20207;-86
2022/04/14 01:08:35;;;;;;;32.15;24.35;;;13.80;87.20;;;;;;5018471;28;20218;-87
2022/04/14 01:11:02;;;;;;;29.77;23.63;;;13.80;87.00;;;;;;5017463;28;20233;-87
2022/04/14 01:13:29;;;;;;;28.80;23.40;;;13.70;87.70;;;;;;5017364;28;20186;-87
2022/04/14 01:15:59;;;;;;;27.60;20.58;;;13.80;87.20;;;;;;5018251;28;20706;-87
2022/04/14 01:18:26;;;;;;;31.67;23.80;;;13.80;86.60;;;;;;5034513;28;20197;-85
2022/04/14 01:20:53;;;;;;;29.15;22.30;;;13.80;86.10;;;;;;5035821;28;20595;-87
2022/04/14 01:23:42;;;;;;;32.28;25.02;;;13.80;85.90;;;;;;5028138;28;20189;-86
2022/04/14 01:26:08;;;;;;;27.85;23.38;;;13.70;85.90;;;;;;5019040;28;20632;-86
2022/04/14 01:28:34;;;;;;;33.03;26.35;;;13.70;86.10;;;;;;5019493;28;20209;-87
2022/04/14 01:31:00;;;;;;;27.60;22.80;;;13.70;86.10;;;;;;5019597;28;20648;-87
2022/04/14 01:33:26;;;;;;;28.50;23.10;;;13.80;85.70;;;;;;5023420;28;20174;-85
2022/04/14 01:35:51;;;;;;;30.73;24.10;;;13.70;85.70;;;;;;5024435;28;20195;-87
2022/04/14 01:38:17;;;;;;;28.80;22.37;;;13.60;85.70;;;;;;5026524;28;20417;-88
2022/04/14 01:40:43;;;;;;;30.00;23.37;;;13.60;85.80;;;;;;5025006;28;20193;-87
2022/04/14 01:43:09;;;;;;;26.40;21.30;;;13.40;86.20;;;;;;5028475;28;20194;-87
2022/04/14 01:45:35;;;;;;;31.50;25.20;;;13.40;86.50;;;;;;5028540;28;20233;-88
2022/04/14 01:48:01;;;;;;;31.23;26.07;;;13.50;86.50;;;;;;5023405;28;20182;-87
2022/04/14 01:50:27;;;;;;;29.80;24.23;;;13.40;86.60;;;;;;5028533;28;20475;-85
2022/04/14 01:52:53;;;;;;;36.30;25.90;;;13.40;86.50;;;;;;5014180;28;20418;-85
2022/04/14 01:55:18;;;;;;;36.10;27.20;;;13.40;86.50;;;;;;5001173;28;20481;-83
2022/04/14 01:57:45;;;;;;;27.80;23.40;;;13.30;87.30;;;;;;5001088;28;20760;-84
2022/04/14 02:00:13;;;;;;;30.88;24.45;;;13.20;87.80;;;;;;5010854;28;20441;-86
2022/04/14 02:02:39;;;;;;;33.28;25.25;;;13.30;87.60;;;;;;5006479;28;20210;-84
2022/04/14 02:05:06;;;;;;;37.15;27.13;;;13.20;87.50;;;;;;4999129;28;20206;-85
2022/04/14 02:07:32;;;;;;;33.42;26.45;;;13.00;88.60;;;;;;5002987;28;20183;-85
2022/04/14 02:09:58;;;;;;;35.20;27.83;;;13.00;89.30;;;;;;5008142;28;20175;-85
2022/04/14 02:12:24;;;;;;;31.75;24.50;;;12.90;89.80;;;;;;5003888;28;20410;-84
2022/04/14 02:14:50;;;;;;;30.30;23.20;;;13.00;89.90;;;;;;5014205;28;20298;-86
2022/04/14 02:17:16;;;;;;;27.73;22.77;;;13.10;89.10;;;;;;5016436;28;20194;-87
2022/04/14 02:19:42;;;;;;;30.83;26.17;;;13.20;88.00;;;;;;5031955;28;20186;-85
2022/04/14 02:22:08;;;;;;;36.37;26.13;;;13.20;87.30;;;;;;5015116;28;20190;-87
2022/04/14 02:24:33;;;;;;;35.73;28.40;;;13.20;87.10;;;;;;5002328;28;20450;-87
2022/04/14 02:26:59;;;;;;;38.67;26.47;;;13.10;87.40;;;;;;4996293;28;20193;-87
2022/04/14 02:29:25;;;;;;;34.23;26.63;;;13.10;87.70;;;;;;4996254;28;20183;-87
2022/04/14 02:31:53;;;;;;;34.40;25.83;;;13.20;87.30;;;;;;5001604;28;20461;-86
2022/04/14 02:34:19;;;;;;;35.75;27.25;;;13.10;86.90;;;;;;5005210;28;20199;-85
2022/04/14 02:36:45;;;;;;;34.63;27.00;;;13.00;87.10;;;;;;4997531;28;20187;-85
2022/04/14 02:39:10;;;;;;;37.30;28.10;;;13.00;87.60;;;;;;4995700;28;20179;-86
2022/04/14 02:41:36;;;;;;;39.13;28.27;;;12.90;88.60;;;;;;4995793;28;20596;-84
2022/04/14 02:44:02;;;;;;;36.67;27.00;;;12.80;89.40;;;;;;4994099;28;20175;-86
2022/04/14 02:46:27;;;;;;;30.80;25.47;;;12.90;89.20;;;;;;4997756;28;20181;-85
2022/04/14 02:48:53;;;;;;;32.37;26.67;;;12.80;88.70;;;;;;4997647;28;20206;-87
2022/04/14 02:51:19;;;;;;;32.57;27.70;;;13.00;87.90;;;;;;5013888;28;20293;-87
2022/04/14 02:53:45;;;;;;;38.77;29.87;;;13.00;87.30;;;;;;5013811;28;20690;-85
2022/04/14 02:56:10;;;;;;;32.30;26.00;;;13.00;87.10;;;;;;5013789;28;20265;-87
2022/04/14 02:58:39;;;;;;;38.47;28.77;;;12.90;87.20;;;;;;5014894;28;20171;-88
2022/04/14 03:01:04;;;;;;;42.58;30.88;;;12.80;87.90;;;;;;5015216;28;20186;-87
2022/04/14 03:03:30;;;;;;;45.87;34.67;;;12.60;89.00;;;;;;5016751;28;20186;-86
2022/04/14 03:05:56;;;;;;;49.93;33.60;;;12.40;90.00;;;;;;5015481;28;20209;-87
2022/04/14 03:08:22;;;;;;;45.43;32.70;;;12.20;90.90;;;;;;5015446;28;20175;-86
2022/04/14 03:10:47;;;;;;;41.13;30.33;;;12.20;91.50;;;;;;5014736;28;20206;-85
2022/04/14 03:13:13;;;;;;;38.03;30.50;;;12.30;92.00;;;;;;5013715;28;20175;-85
2022/04/14 03:15:39;;;;;;;44.10;29.73;;;12.30;91.70;;;;;;5014987;28;20198;-86
2022/04/14 03:18:05;;;;;;;41.83;29.80;;;12.40;91.10;;;;;;5015698;28;20185;-87
2022/04/14 03:20:31;;;;;;;44.08;33.30;;;12.40;90.90;;;;;;5016287;28;20174;-88
2022/04/14 03:22:57;;;;;;;41.43;30.97;;;12.30;90.90;;;;;;5018336;28;20178;-86
2022/04/14 03:25:23;;;;;;;43.60;32.13;;;12.40;90.70;;;;;;5017918;28;20487;-87
2022/04/14 03:27:49;;;;;;;46.20;35.33;;;12.40;90.50;;;;;;5017536;28;20568;-87
2022/04/14 03:30:15;;;;;;;43.47;32.10;;;12.40;90.00;;;;;;5018227;28;20201;-85
2022/04/14 03:32:42;;;;;;;50.00;35.07;;;12.50;89.30;;;;;;5007716;28;20189;-85
2022/04/14 03:35:09;;;;;;;56.72;38.15;;;12.50;89.00;;;;;;5027949;28;20706;-84
2022/04/14 03:37:35;;;;;;;47.50;34.42;;;12.50;88.70;;;;;;5033226;28;20202;-85
2022/04/14 03:40:01;;;;;;;50.23;35.33;;;12.60;88.40;;;;;;5016679;28;20178;-86
2022/04/14 03:42:26;;;;;;;50.07;37.40;;;12.50;88.40;;;;;;5018300;28;20423;-85
2022/04/14 03:44:52;;;;;;;59.07;39.20;;;12.40;88.80;;;;;;5030926;28;20448;-85
2022/04/14 03:47:18;;;;;;;59.57;42.90;;;12.30;89.70;;;;;;5024237;28;20171;-85
2022/04/14 03:49:44;;;;;;;46.60;34.70;;;12.10;90.80;;;;;;5015513;28;20426;-86
2022/04/14 03:52:10;;;;;;;63.00;38.57;;;12.10;91.60;;;;;;5001087;28;20472;-87
2022/04/14 03:54:35;;;;;;;54.33;36.70;;;12.20;91.60;;;;;;4998784;28;20203;-87
2022/04/14 03:57:01;;;;;;;46.90;36.70;;;12.20;91.40;;;;;;4999999;28;20530;-85
2022/04/14 03:59:27;;;;;;;57.80;40.43;;;12.10;91.30;;;;;;4999982;28;20210;-84
2022/04/14 04:01:53;;;;;;;59.83;39.93;;;12.20;91.40;;;;;;5001489;28;20421;-87
2022/04/14 04:04:18;;;;;;;54.00;37.70;;;12.10;91.80;;;;;;5011553;28;20213;-87
2022/04/14 04:06:45;;;;;;;55.97;37.60;;;12.10;92.10;;;;;;5035876;28;20186;-85
2022/04/14 04:09:12;;;;;;;52.05;37.60;;;12.10;91.80;;;;;;5036116;28;20717;-87
2022/04/14 04:11:38;;;;;;;55.35;37.75;;;12.20;91.30;;;;;;5046530;28;20264;-83
2022/04/14 04:14:04;;;;;;;53.00;35.80;;;12.30;90.70;;;;;;5047583;28;20174;-83
2022/04/14 04:16:29;;;;;;;51.17;37.10;;;12.30;90.20;;;;;;5035150;28;20504;-83
2022/04/14 04:18:55;;;;;;;63.87;46.30;;;12.20;90.00;;;;;;5051497;28;20273;-83
2022/04/14 04:21:21;;;;;;;62.10;41.23;;;12.00;90.70;;;;;;5039489;28;20186;-83
2022/04/14 04:23:46;;;;;;;58.20;41.10;;;11.90;91.70;;;;;;5042589;28;20194;-84
2022/04/14 04:26:12;;;;;;;72.80;45.13;;;11.80;92.40;;;;;;5040061;28;20166;-82
2022/04/14 04:28:38;;;;;;;59.67;41.13;;;11.70;92.90;;;;;;5023217;28;20190;-83
2022/04/14 04:31:04;;;;;;;68.23;44.93;;;11.70;93.30;;;;;;5039288;28;20480;-82
2022/04/14 04:33:29;;;;;;;56.63;38.83;;;11.70;93.50;;;;;;5038850;28;20205;-84
2022/04/14 04:35:55;;;;;;;57.80;39.30;;;11.80;93.60;;;;;;5039633;28;20214;-83
2022/04/14 04:38:21;;;;;;;53.13;39.13;;;11.80;93.40;;;;;;5038606;28;20205;-82
2022/04/14 04:40:46;;;;;;;61.90;40.70;;;11.90;92.90;;;;;;5024902;28;20554;-84
2022/04/14 04:43:15;;;;;;;65.60;44.63;;;11.90;92.60;;;;;;4999713;28;20644;-86
2022/04/14 04:45:42;;;;;;;67.10;42.95;;;11.80;92.60;;;;;;5000005;28;20586;-85
2022/04/14 04:48:08;;;;;;;54.25;39.35;;;11.80;92.80;;;;;;5000207;28;20175;-87
2022/04/14 04:50:33;;;;;;;59.47;41.00;;;11.90;92.90;;;;;;5004914;28;20561;-86
2022/04/14 04:52:59;;;;;;;54.57;39.00;;;11.90;92.60;;;;;;5015896;28;20462;-86
2022/04/14 04:55:26;;;;;;;52.27;39.00;;;11.90;92.40;;;;;;5021132;28;20441;-84
2022/04/14 04:57:51;;;;;;;61.53;40.22;;;12.00;91.70;;;;;;5028827;28;20193;-84
2022/04/14 05:00:17;;;;;;;51.30;37.40;;;12.10;90.70;;;;;;5019486;28;20182;-85
2022/04/14 05:02:43;;;;;;;54.57;38.60;;;12.10;90.00;;;;;;5017686;28;20201;-86
2022/04/14 05:05:09;;;;;;;54.70;39.07;;;12.10;89.50;;;;;;5017483;28;20573;-86
2022/04/14 05:07:35;;;;;;;62.53;42.80;;;12.10;89.60;;;;;;5001559;28;20178;-87
2022/04/14 05:10:01;;;;;;;54.03;37.87;;;12.00;89.50;;;;;;5018837;28;20417;-88
2022/04/14 05:12:26;;;;;;;53.33;39.80;;;12.00;89.80;;;;;;5029114;28;20175;-86
2022/04/14 05:14:52;;;;;;;57.40;40.93;;;12.00;89.70;;;;;;5023586;28;20237;-86
2022/04/14 05:17:18;;;;;;;49.80;36.87;;;12.10;89.50;;;;;;5024745;28;20178;-87
2022/04/14 05:19:44;;;;;;;58.50;40.58;;;12.00;89.00;;;;;;5028533;28;20198;-84
2022/04/14 05:22:10;;;;;;;56.05;39.70;;;12.10;89.00;;;;;;5032550;28;20182;-84
2022/04/14 05:24:35;;;;;;;57.20;40.63;;;12.10;88.80;;;;;;5031909;28;20203;-87
2022/04/14 05:27:01;;;;;;;60.10;40.90;;;12.10;88.90;;;;;;5033492;28;20191;-85
2022/04/14 05:29:27;;;;;;;64.00;42.00;;;12.00;89.40;;;;;;5030378;28;20174;-84
2022/04/14 05:31:53;;;;;;;60.90;41.30;;;12.10;89.40;;;;;;5017593;28;20302;-86
2022/04/14 05:34:19;;;;;;;60.50;40.25;;;12.20;88.80;;;;;;5016751;28;20445;-86
2022/04/14 05:36:45;;;;;;;57.77;41.20;;;12.40;88.60;;;;;;5023654;28;20221;-83
2022/04/14 05:39:11;;;;;;;49.97;37.30;;;12.40;88.50;;;;;;5014223;28;20187;-84
2022/04/14 05:41:36;;;;;;;54.70;37.70;;;12.70;88.70;;;;;;5018063;28;20199;-84
2022/04/14 05:44:02;;;;;;;42.50;34.30;;;13.40;88.80;;;;;;5009597;28;20192;-85
2022/04/14 05:46:28;;;;;;;42.10;33.25;;;14.10;86.80;;;;;;5001425;28;20183;-87
2022/04/14 05:48:54;;;;;;;39.57;32.67;;;14.80;83.10;;;;;;5020070;28;20630;-86
2022/04/14 05:51:21;;;;;;;40.57;32.60;;;15.40;79.80;;;;;;5018248;28;20210;-85
2022/04/14 05:53:51;;;;;;;36.75;28.23;;;16.00;76.40;;;;;;5017615;28;20175;-86
2022/04/14 05:56:17;;;;;;;33.55;27.70;;;16.40;74.90;;;;;;5021339;28;20855;-85
2022/04/14 05:58:43;;;;;;;28.60;25.50;;;16.30;72.80;;;;;;5017328;28;20178;-87
2022/04/14 06:01:09;;;;;;;31.00;25.77;;;16.60;72.10;;;;;;5034286;28;20504;-85
2022/04/14 06:03:35;;;;;;;27.80;23.47;;;16.80;71.00;;;;;;5040313;28;20233;-82
2022/04/14 06:06:01;;;;;;;31.83;25.77;;;17.00;69.60;;;;;;5035674;28;20441;-82
2022/04/14 06:08:27;;;;;;;29.60;24.33;;;17.00;70.00;;;;;;5036433;28;20174;-83
2022/04/14 06:10:53;;;;;;;25.52;22.80;;;17.50;68.90;;;;;;5036947;28;20198;-83
2022/04/14 06:13:19;;;;;;;23.93;20.37;;;17.90;65.60;;;;;;5037289;28;20193;-84
2022/04/14 06:15:45;;;;;;;22.07;19.00;;;17.80;65.30;;;;;;5037321;28;20457;-85
2022/04/14 06:18:10;;;;;;;32.93;19.10;;;18.40;65.00;;;;;;5036511;28;20190;-84
2022/04/14 06:20:36;;;;;;;19.63;16.77;;;18.40;64.30;;;;;;5038121;28;20173;-82
2022/04/14 06:23:02;;;;;;;20.27;17.20;;;19.60;61.10;;;;;;5036400;28;20250;-88
2022/04/14 06:25:28;;;;;;;23.77;17.13;;;19.80;58.00;;;;;;5027842;28;20205;-85
2022/04/14 06:27:57;;;;;;;16.30;13.50;;;18.70;60.20;;;;;;5018815;28;20401;-89
2022/04/14 06:30:23;;;;;;;17.93;15.67;;;19.70;59.80;;;;;;5018475;28;20267;-87
2022/04/14 06:32:57;;;;;;;21.37;17.40;;;19.50;57.20;;;;;;5017413;28;20420;-87
2022/04/14 06:35:23;;;;;;;21.10;16.53;;;20.40;55.80;;;;;;5003348;28;20445;-85
2022/04/14 06:37:49;;;;;;;16.00;13.57;;;20.30;54.20;;;;;;5018531;28;20468;-88
2022/04/14 06:40:14;;;;;;;17.97;14.20;;;20.20;53.80;;;;;;5018699;28;20417;-88
2022/04/14 06:42:40;;;;;;;22.53;15.60;;;20.90;53.80;;;;;;5001016;28;20269;-87
2022/04/14 06:45:06;;;;;;;15.80;14.00;;;21.00;52.80;;;;;;5019525;28;20347;-86
2022/04/14 06:47:32;;;;;;;16.10;14.47;;;20.60;53.70;;;;;;5028208;28;20196;-87
2022/04/14 06:49:58;;;;;;;16.60;14.90;;;21.00;51.60;;;;;;5021843;28;20417;-88
2022/04/14 06:52:24;;;;;;;20.23;15.47;;;20.40;53.10;;;;;;5022310;28;20218;-86
2022/04/14 06:54:50;;;;;;;17.67;14.47;;;19.60;54.80;;;;;;5040321;28;20607;-85
2022/04/14 06:57:16;;;;;;;19.90;13.73;;;19.30;56.60;;;;;;5046327;28;20198;-87
2022/04/14 06:59:42;;;;;;;18.93;13.43;;;18.50;58.10;;;;;;5038851;28;20418;-88
2022/04/14 07:02:08;;;;;;;15.20;12.50;;;17.90;61.00;;;;;;5031257;28;20479;-86
2022/04/14 07:04:35;;;;;;;20.27;14.83;;;17.40;63.00;;;;;;5031580;28;20491;-84
2022/04/14 07:07:01;;;;;;;25.60;14.38;;;17.10;63.80;;;;;;5032465;28;20420;-88
2022/04/14 07:09:32;;;;;;;22.87;14.20;;;16.80;65.20;;;;;;5033467;28;20182;-85
2022/04/14 07:12:02;;;;;;;21.40;15.15;;;16.50;66.70;;;;;;5015614;28;20901;-86
2022/04/14 07:14:29;;;;;;;24.50;15.20;;;16.30;67.70;;;;;;5032578;28;20202;-86
2022/04/14 07:16:59;;;;;;;21.23;14.68;;;16.20;68.20;;;;;;5033174;28;20256;-87
2022/04/14 07:19:26;;;;;;;22.05;14.50;;;16.00;68.90;;;;;;5036108;28;20179;-82
2022/04/14 07:21:53;;;;;;;21.35;15.00;;;15.40;70.10;;;;;;5009045;28;20222;-86
2022/04/14 07:24:19;;;;;;;19.77;14.95;;;15.50;71.30;;;;;;5015190;28;20214;-87
2022/04/14 07:26:45;;;;;;;20.17;15.30;;;15.60;71.90;;;;;;5035531;28;20686;-85
2022/04/14 07:29:11;;;;;;;25.20;15.60;;;15.90;70.50;;;;;;5045929;28;20186;-84
2022/04/14 07:31:39;;;;;;;20.70;14.07;;;15.90;69.70;;;;;;5047805;28;20205;-83
2022/04/14 07:34:06;;;;;;;25.15;16.67;;;15.70;70.80;;;;;;5033576;28;20243;-83
2022/04/14 07:36:32;;;;;;;24.05;16.35;;;15.50;71.50;;;;;;5042870;28;20170;-86
2022/04/14 07:38:58;;;;;;;21.00;15.38;;;15.20;72.10;;;;;;5033831;28;20186;-87
2022/04/14 07:41:26;;;;;;;22.40;14.03;;;15.00;73.00;;;;;;5032511;28;20575;-87
2022/04/14 07:43:56;;;;;;;24.50;15.55;;;14.70;74.10;;;;;;5032130;28;20521;-87
2022/04/14 07:46:22;;;;;;;23.60;14.70;;;14.50;75.20;;;;;;5033670;28;20554;-86
2022/04/14 07:48:48;;;;;;;26.25;16.20;;;14.60;75.40;;;;;;5036245;28;20182;-87
2022/04/14 07:51:14;;;;;;;30.30;16.63;;;14.40;76.00;;;;;;5021208;28;20232;-87
2022/04/14 07:53:40;;;;;;;21.05;15.32;;;14.60;76.30;;;;;;5021652;28;20493;-87
2022/04/14 07:56:06;;;;;;;20.43;14.87;;;14.60;76.30;;;;;;5018704;28;20227;-87
2022/04/14 07:58:33;;;;;;;23.17;15.82;;;14.70;76.00;;;;;;5020772;28;20428;-86
2022/04/14 08:00:59;;;;;;;27.20;15.25;;;14.80;75.60;;;;;;5048560;28;20278;-84
2022/04/14 08:03:25;;;;;;;23.20;15.40;;;14.80;75.80;;;;;;5028394;28;20202;-86
2022/04/14 08:05:50;;;;;;;29.77;14.90;;;14.80;75.40;;;;;;5018379;28;20203;-87
2022/04/14 08:08:19;;;;;;;26.20;17.13;;;14.80;75.50;;;;;;5017251;28;20198;-87
2022/04/14 08:10:46;;;;;;;21.90;16.25;;;14.80;75.70;;;;;;5014255;28;20461;-87
2022/04/14 08:13:13;;;;;;;20.65;15.43;;;14.80;75.80;;;;;;5017100;28;20206;-86
2022/04/14 08:15:40;;;;;;;17.27;13.75;;;14.70;75.60;;;;;;5015671;28;20209;-87
2022/04/14 08:18:06;;;;;;;26.58;14.23;;;14.80;75.80;;;;;;5015332;28;20589;-88
2022/04/14 08:20:34;;;;;;;18.50;13.02;;;14.80;75.80;;;;;;5022142;28;20178;-86
2022/04/14 08:23:01;;;;;;;20.35;13.10;;;15.00;75.50;;;;;;5018187;28;20311;-85
2022/04/14 08:25:28;;;;;;;22.23;13.57;;;15.00;74.50;;;;;;5003938;28;20203;-87
2022/04/14 08:27:56;;;;;;;19.65;14.60;;;15.00;74.50;;;;;;5025284;28;20190;-85
2022/04/14 08:30:23;;;;;;;14.98;12.02;;;15.00;74.40;;;;;;5032134;28;20174;-86
2022/04/14 08:32:50;;;;;;;23.88;14.23;;;15.20;74.40;;;;;;5026322;28;20670;-87
2022/04/14 08:35:18;;;;;;;17.35;12.45;;;15.30;74.00;;;;;;5016142;28;20194;-87
2022/04/14 08:37:44;;;;;;;29.73;13.07;;;15.50;73.50;;;;;;5015273;28;20190;-87
2022/04/14 08:40:13;;;;;;;22.92;14.15;;;15.50;73.20;;;;;;5015644;28;20214;-88
2022/04/14 08:42:41;;;;;;;19.80;12.52;;;15.40;73.60;;;;;;5018897;28;20179;-86
2022/04/14 08:45:11;;;;;;;15.32;10.95;;;15.40;73.50;;;;;;5018497;28;20321;-86
2022/04/14 08:47:39;;;;;;;16.77;11.50;;;15.70;73.30;;;;;;5019822;28;20273;-87
2022/04/14 08:50:07;;;;;;;18.05;11.43;;;15.80;73.80;;;;;;5018494;28;20262;-86
2022/04/14 08:52:35;;;;;;;18.50;11.27;;;15.90;72.90;;;;;;5018631;28;20179;-85
2022/04/14 08:55:08;;;;;;;21.40;13.05;;;16.20;72.20;;;;;;5031162;28;20178;-83
2022/04/14 08:57:37;;;;;;;21.55;12.98;;;16.10;71.90;;;;;;5036750;28;20171;-82
2022/04/14 09:00:06;;;;;;;18.20;11.98;;;15.90;71.80;;;;;;5035871;28;20155;-83
2022/04/14 09:02:33;;;;;;;18.05;12.60;;;16.10;72.40;;;;;;5027202;28;20179;-86
2022/04/14 09:04:59;;;;;;;17.63;12.30;;;16.50;71.30;;;;;;5022489;28;20201;-86
2022/04/14 09:07:27;;;;;;;15.48;12.10;;;16.40;71.20;;;;;;5019134;28;20685;-86
2022/04/14 09:09:53;;;;;;;22.58;12.15;;;16.20;71.80;;;;;;5022727;28;20182;-88
2022/04/14 09:12:19;;;;;;;19.67;13.10;;;16.10;72.00;;;;;;5031540;28;20210;-83
2022/04/14 09:14:45;;;;;;;18.40;12.30;;;16.10;72.20;;;;;;5023819;28;20202;-84
2022/04/14 09:17:11;;;;;;;20.65;13.45;;;16.00;71.80;;;;;;5020104;28;20782;-85
2022/04/14 09:19:38;;;;;;;13.53;10.80;;;15.90;72.80;;;;;;5018645;28;20179;-84
2022/04/14 09:22:07;;;;;;;16.35;11.63;;;16.10;72.30;;;;;;5019095;28;20186;-86
2022/04/14 09:24:43;;;;;;;18.00;12.48;;;16.10;72.00;;;;;;5028647;28;20254;-84
2022/04/14 09:27:09;;;;;;;20.52;14.00;;;16.20;72.10;;;;;;5031802;28;20246;-86
2022/04/14 09:29:45;;;;;;;21.10;12.82;;;16.30;71.80;;;;;;5017910;28;20186;-86
2022/04/14 09:32:11;;;;;;;16.30;11.75;;;16.30;71.10;;;;;;5017827;28;20202;-87
2022/04/14 09:34:48;;;;;;;17.73;12.07;;;16.60;70.50;;;;;;5017569;28;20238;-85
2022/04/14 09:37:14;;;;;;;16.48;12.95;;;16.70;70.00;;;;;;5021558;28;20541;-85
2022/04/14 09:39:56;;;;;;;19.90;11.77;;;16.40;69.70;;;;;;5028375;28;20318;-86
2022/04/14 09:42:22;;;;;;;16.02;10.75;;;16.40;70.30;;;;;;5025990;28;20175;-86
2022/04/14 09:44:50;;;;;;;20.52;12.68;;;16.40;70.30;;;;;;5016578;28;20313;-87
2022/04/14 09:47:39;;;;;;;13.43;11.43;;;16.50;70.00;;;;;;5016653;28;20190;-87
2022/04/14 09:50:25;;;;;;;22.15;12.63;;;16.80;69.80;;;;;;5016492;28;20178;-87
2022/04/14 09:53:02;;;;;;;25.08;14.73;;;17.40;67.50;;;;;;5015206;28;20341;-87
2022/04/14 09:55:28;;;;;;;16.92;11.38;;;17.50;66.20;;;;;;5018491;28;20206;-86
2022/04/14 09:58:15;;;;;;;20.38;12.70;;;17.40;66.50;;;;;;5009190;28;20186;-88
2022/04/14 10:00:41;;;;;;;16.63;11.95;;;17.10;67.30;;;;;;4998897;28;20195;-86
2022/04/14 10:03:25;;;;;;;19.57;10.50;;;17.10;67.60;;;;;;4997429;28;20527;-85
2022/04/14 10:05:59;;;;;;;19.98;12.02;;;17.10;68.00;;;;;;5002442;28;20466;-85
2022/04/14 10:08:25;;;;;;;17.08;12.88;;;17.10;68.60;;;;;;5000107;28;20230;-86
2022/04/14 10:11:08;;;;;;;16.83;12.40;;;17.20;67.00;;;;;;4997707;28;20598;-85
2022/04/14 10:13:36;;;;;;;23.98;14.07;;;17.10;66.80;;;;;;4997030;28;20562;-87
2022/04/14 10:16:02;;;;;;;24.92;15.60;;;17.10;67.50;;;;;;4996509;28;20199;-87
2022/04/14 10:18:30;;;;;;;21.43;16.13;;;17.20;67.80;;;;;;4995683;28;20225;-87
2022/04/14 10:20:57;;;;;;;24.88;17.00;;;17.20;67.10;;;;;;4996733;28;20426;-87
2022/04/14 10:23:23;;;;;;;20.90;14.98;;;17.40;66.70;;;;;;5007383;28;20187;-85
2022/04/14 10:25:51;;;;;;;23.38;15.98;;;17.50;66.80;;;;;;5016695;28;20201;-86
2022/04/14 10:28:16;;;;;;;18.67;14.82;;;17.60;66.20;;;;;;5018205;28;20202;-87
2022/04/14 10:30:49;;;;;;;21.03;14.93;;;17.50;66.10;;;;;;5015969;28;20206;-87
2022/04/14 10:33:17;;;;;;;21.17;15.32;;;17.50;66.50;;;;;;5017353;28;20950;-88
2022/04/14 10:35:43;;;;;;;18.27;13.98;;;17.40;67.10;;;;;;5016326;28;20200;-86
2022/04/14 10:38:33;;;;;;;18.45;14.13;;;17.50;66.60;;;;;;5016067;28;20185;-87
2022/04/14 10:41:21;;;;;;;19.48;13.60;;;17.70;66.20;;;;;;5017542;28;20193;-85
2022/04/14 10:43:47;;;;;;;17.02;11.90;;;17.70;65.10;;;;;;5023895;28;20170;-84
2022/04/14 10:46:17;;;;;;;20.40;13.05;;;17.50;64.80;;;;;;5018338;28;20199;-84
2022/04/14 10:48:46;;;;;;;14.38;10.07;;;17.50;64.70;;;;;;5034835;28;20158;-83
2022/04/14 10:51:23;;;;;;;16.58;11.50;;;17.50;64.50;;;;;;5032926;28;20253;-86
2022/04/14 10:53:59;;;;;;;14.95;11.02;;;17.40;64.50;;;;;;5014849;28;20270;-88
2022/04/14 10:56:33;;;;;;;16.77;10.25;;;17.40;65.20;;;;;;5017433;28;20186;-84
2022/04/14 10:58:59;;;;;;;20.20;11.25;;;17.50;65.40;;;;;;5016463;28;20200;-86
2022/04/14 11:04:26;;;;;;;11.48;9.25;;;17.40;63.40;;;;;;5033285;28;20197;-86
2022/04/14 11:07:01;;;;;;;20.42;9.90;;;17.30;63.80;;;;;;5035589;28;20234;-87
2022/04/14 11:09:45;;;;;;;12.02;8.65;;;17.40;63.70;;;;;;5028537;28;20170;-81
2022/04/14 11:12:16;;;;;;;14.77;9.15;;;17.50;63.70;;;;;;5052118;28;20202;-81
2022/04/14 11:15:01;;;;;;;11.43;8.93;;;17.50;63.20;;;;;;5040189;28;20268;-86
2022/04/14 11:17:47;;;;;;;18.15;12.70;;;17.50;62.90;;;;;;5034317;28;20239;-83
2022/04/14 11:20:30;;;;;;;14.57;11.05;;;17.50;63.30;;;;;;5018513;28;20175;-86
2022/04/14 11:23:11;;;;;;;16.35;12.45;;;17.60;63.80;;;;;;5031773;28;20179;-87
2022/04/14 11:25:49;;;;;;;17.45;13.52;;;17.80;63.30;;;;;;5016950;28;20226;-86
2022/04/14 11:28:16;;;;;;;20.40;13.15;;;18.20;62.40;;;;;;5034671;28;20250;-85
2022/04/14 11:30:42;;;;;;;17.48;13.45;;;18.20;61.90;;;;;;5027972;28;20207;-84
2022/04/14 11:33:28;;;;;;;19.27;14.53;;;18.00;62.20;;;;;;5020726;28;20611;-87
2022/04/14 11:36:06;;;;;;;18.30;14.45;;;17.70;63.20;;;;;;5039838;28;20425;-85
2022/04/14 11:38:54;;;;;;;17.60;15.15;;;17.50;63.50;;;;;;5018434;28;20643;-86
2022/04/14 11:41:36;;;;;;;20.67;14.50;;;17.60;64.10;;;;;;5040871;28;20262;-87
2022/04/14 11:44:07;;;;;;;22.30;15.13;;;17.40;64.20;;;;;;5018213;28;20178;-86
2022/04/14 11:46:34;;;;;;;17.80;12.68;;;17.40;64.40;;;;;;5015870;28;20178;-88
2022/04/14 11:49:01;;;;;;;17.27;12.75;;;17.30;64.40;;;;;;5017597;28;20180;-87
2022/04/14 11:51:27;;;;;;;17.48;11.55;;;17.30;64.60;;;;;;5016401;28;20210;-88
2022/04/14 11:53:55;;;;;;;11.52;10.30;;;17.60;64.30;;;;;;5018964;28;20182;-86
2022/04/14 11:56:22;;;;;;;26.20;12.55;;;17.80;64.10;;;;;;5023413;28;20182;-86
2022/04/14 11:58:48;;;;;;;16.95;11.50;;;17.60;63.40;;;;;;5006337;28;20202;-85
2022/04/14 12:01:14;;;;;;;16.10;10.20;;;17.50;63.80;;;;;;5022181;28;20178;-85
2022/04/14 12:03:42;;;;;;;14.32;10.35;;;17.50;63.10;;;;;;5037204;28;20405;-86
2022/04/14 12:06:10;;;;;;;13.57;9.55;;;17.40;63.20;;;;;;5023597;28;20207;-86
2022/04/14 12:08:37;;;;;;;14.93;9.73;;;17.50;63.20;;;;;;5018285;28;20190;-85
2022/04/14 12:11:13;;;;;;;11.15;8.60;;;17.40;63.10;;;;;;5030183;28;20206;-85
2022/04/14 12:13:40;;;;;;;15.98;8.80;;;17.60;63.10;;;;;;5028953;28;20178;-86
2022/04/14 12:16:07;;;;;;;15.60;8.90;;;17.70;62.70;;;;;;5031884;28;20222;-88
2022/04/14 12:18:34;;;;;;;14.00;8.48;;;17.90;62.10;;;;;;5018956;28;20174;-85
2022/04/14 12:21:00;;;;;;;11.18;9.23;;;18.00;61.70;;;;;;5034326;28;20277;-87
2022/04/14 12:23:26;;;;;;;11.70;8.57;;;18.20;61.10;;;;;;5032114;28;20237;-87
2022/04/14 12:25:54;;;;;;;12.60;7.40;;;18.20;60.40;;;;;;5034610;28;20437;-87
2022/04/14 12:28:20;;;;;;;13.75;7.32;;;18.30;59.80;;;;;;5034036;28;20749;-85
2022/04/14 12:30:46;;;;;;;10.10;8.63;;;18.20;59.70;;;;;;5035048;28;20210;-86
2022/04/14 12:33:12;;;;;;;9.80;7.60;;;18.10;59.70;;;;;;5034188;28;20182;-87